createdAt,value
2023-02-27T04:46:42.939Z,46.93
2023-02-27T04:49:51.576Z,46.17
2023-02-27T04:53:03.498Z,46.59
2023-02-27T04:56:12.580Z,46.44
2023-02-27T04:59:20.840Z,46.71
2023-02-27T05:02:36.983Z,46.63
2023-02-27T05:05:43.370Z,46.51
2023-02-27T05:09:30.579Z,47.08
2023-02-27T05:12:39.221Z,47.29
2023-02-27T05:15:52.517Z,47.54
2023-02-27T05:18:55.581Z,48.05
2023-02-27T05:22:26.694Z,47.26
2023-02-27T05:25:49.085Z,46.53
2023-02-27T05:29:07.430Z,47.00
2023-02-27T05:32:38.767Z,46.06
2023-02-27T05:36:11.062Z,46.29
2023-02-27T05:39:17.073Z,46.14
2023-02-27T05:42:28.675Z,46.24
2023-02-27T05:45:34.614Z,45.98
2023-02-27T05:48:42.468Z,47.80
2023-02-27T05:51:48.078Z,45.93
2023-02-27T05:54:59.576Z,46.13
2023-02-27T05:58:07.606Z,45.92
2023-02-27T06:01:11.761Z,46.97
2023-02-27T06:04:14.353Z,46.58
2023-02-27T06:07:16.568Z,47.28
2023-02-27T06:10:20.790Z,46.21
2023-02-27T06:13:23.791Z,46.74
2023-02-27T06:16:27.230Z,46.59
2023-02-27T06:19:29.520Z,46.84
2023-02-27T06:22:32.079Z,45.73
2023-02-27T06:25:34.384Z,45.07
2023-02-27T06:28:37.166Z,46.04
2023-02-27T06:31:39.250Z,47.32
2023-02-27T06:34:41.636Z,45.37
2023-02-27T06:37:44.424Z,45.06
2023-02-27T06:40:47.030Z,45.35
2023-02-27T06:43:49.294Z,45.09
2023-02-27T06:46:51.704Z,45.14
2023-02-27T06:49:53.819Z,44.66
2023-02-27T06:52:56.227Z,44.69
2023-02-27T06:55:58.594Z,44.14
2023-02-27T06:59:00.975Z,43.97
2023-02-27T07:02:03.123Z,43.72
2023-02-27T07:05:08.180Z,43.44
2023-02-27T07:08:11.266Z,44.19
2023-02-27T07:11:13.800Z,43.85
2023-02-27T07:14:20.607Z,43.74
2023-02-27T07:17:23.202Z,44.28
2023-02-27T07:20:25.359Z,44.94
2023-02-27T07:23:27.847Z,44.39
2023-02-27T07:26:30.216Z,44.13
2023-02-27T07:29:32.687Z,43.75
2023-02-27T07:32:34.796Z,43.78
2023-02-27T07:35:37.788Z,43.55
2023-02-27T07:38:39.890Z,44.43
2023-02-27T07:41:42.368Z,44.00
2023-02-27T07:44:49.674Z,45.12
2023-02-27T07:47:52.093Z,43.27
2023-02-27T07:50:54.239Z,45.06
2023-02-27T07:53:59.594Z,43.23
2023-02-27T07:57:01.744Z,43.66
2023-02-27T08:00:06.558Z,43.65
2023-02-27T08:03:13.835Z,43.34
2023-02-27T08:06:16.243Z,43.28
2023-02-27T08:09:18.522Z,43.00
2023-02-27T08:12:21.117Z,42.84
2023-02-27T08:15:24.460Z,42.50
2023-02-27T08:18:26.900Z,41.35
2023-02-27T08:21:29.766Z,42.23
2023-02-27T08:24:32.576Z,41.11
2023-02-27T08:27:34.971Z,41.83
2023-02-27T08:30:37.398Z,41.14
2023-02-27T08:33:39.624Z,41.69
2023-02-27T08:36:42.360Z,40.99
2023-02-27T08:39:44.538Z,41.66
2023-02-27T08:42:47.090Z,41.29
2023-02-27T08:45:50.297Z,41.22
2023-02-27T08:48:52.808Z,40.59
2023-02-27T08:51:54.969Z,39.73
2023-02-27T08:54:57.840Z,40.25
2023-02-27T08:58:00.001Z,39.57
2023-02-27T09:01:03.134Z,39.39
2023-02-27T09:04:06.724Z,39.75
2023-02-27T09:07:09.131Z,41.21
2023-02-27T09:10:12.375Z,39.60
2023-02-27T09:16:46.311Z,39.08
2023-02-27T09:19:49.265Z,39.18
2023-02-27T09:22:51.387Z,39.44
2023-02-27T09:25:53.918Z,38.99
2023-02-27T09:28:56.175Z,39.36
2023-02-27T09:31:58.806Z,39.47
2023-02-27T09:35:01.030Z,39.41
2023-02-27T09:38:03.680Z,39.48
2023-02-27T09:41:21.186Z,39.79
2023-02-27T09:44:46.097Z,40.41
2023-02-27T09:47:53.744Z,39.03
2023-02-27T09:50:57.795Z,39.34
2023-02-27T09:54:02.276Z,39.54
2023-02-27T09:57:10.684Z,41.15
2023-02-27T10:00:24.734Z,38.95
2023-02-27T10:04:12.128Z,39.60
2023-02-27T10:07:20.103Z,39.82
2023-02-27T10:10:54.999Z,39.15
2023-02-27T10:14:05.257Z,38.54
2023-02-27T10:17:17.902Z,39.17
2023-02-27T10:20:43.570Z,37.80
2023-02-27T10:24:05.586Z,38.03
2023-02-27T10:27:16.347Z,38.64
2023-02-27T10:30:32.900Z,38.69
2023-02-27T10:33:42.660Z,38.00
2023-02-27T10:36:51.259Z,39.39
2023-02-27T10:39:57.239Z,37.79
2023-02-27T10:43:02.650Z,37.85
2023-02-27T10:46:28.514Z,38.22
2023-02-27T10:49:33.559Z,38.73
2023-02-27T10:52:48.898Z,38.16
2023-02-27T10:56:01.595Z,38.50
2023-02-27T10:59:07.126Z,38.57
2023-02-27T11:02:15.821Z,37.49
2023-02-27T11:05:38.320Z,37.52
2023-02-27T11:08:40.722Z,37.33
2023-02-27T11:11:42.881Z,37.34
2023-02-27T11:14:52.065Z,36.43
2023-02-27T11:17:55.009Z,36.80
2023-02-27T11:21:15.132Z,37.74
2023-02-27T11:24:20.432Z,37.21
2023-02-27T11:27:27.120Z,37.49
2023-02-27T11:30:31.661Z,37.76
2023-02-27T11:33:49.833Z,38.49
2023-02-27T11:36:55.960Z,36.71
2023-02-27T11:40:19.405Z,37.57
2023-02-27T11:43:31.857Z,37.64
2023-02-27T11:46:46.863Z,38.57
2023-02-27T11:50:31.184Z,37.43
2023-02-27T11:54:04.793Z,38.01
2023-02-27T11:57:30.218Z,37.74
2023-02-27T12:00:50.923Z,37.20
2023-02-27T12:04:10.860Z,36.22
2023-02-27T12:07:51.959Z,35.38
2023-02-27T12:11:13.092Z,35.31
2023-02-27T12:14:31.621Z,35.83
2023-02-27T12:17:44.845Z,38.41
2023-02-27T12:20:57.504Z,36.82
2023-02-27T12:24:14.618Z,36.35
2023-02-27T12:27:22.376Z,38.94
2023-02-27T12:30:29.394Z,37.14
2023-02-27T12:33:40.994Z,36.40
2023-02-27T12:36:43.653Z,34.67
2023-02-27T12:39:46.366Z,37.03
2023-02-27T12:43:11.193Z,36.62
2023-02-27T12:46:38.500Z,34.82
2023-02-27T12:50:06.840Z,34.67
2023-02-27T12:53:26.691Z,34.56
2023-02-27T12:56:58.460Z,35.20
2023-02-27T13:00:08.339Z,35.33
2023-02-27T13:03:19.075Z,34.87
2023-02-27T13:06:33.067Z,35.19
2023-02-27T13:09:46.973Z,35.95
2023-02-27T13:13:03.525Z,37.23
2023-02-27T13:16:13.438Z,37.19
2023-02-27T13:19:24.321Z,37.04
2023-02-27T13:22:41.182Z,36.95
2023-02-27T13:25:48.182Z,37.42
2023-02-27T13:37:49.319Z,38.47
2023-02-27T13:40:51.785Z,36.41
2023-02-27T13:43:56.205Z,35.69
2023-02-27T13:47:30.600Z,36.79
2023-02-27T13:50:32.698Z,38.72
2023-02-27T13:53:35.266Z,37.33
2023-02-27T13:56:37.637Z,36.46
2023-02-27T13:59:44.258Z,36.94
2023-02-27T14:03:00.757Z,36.34
2023-02-27T14:06:06.177Z,36.99
2023-02-27T14:09:15.153Z,37.60
2023-02-27T14:12:44.166Z,36.89
2023-02-27T14:15:47.009Z,36.62
2023-02-27T14:18:58.885Z,36.50
2023-02-27T14:22:16.260Z,36.74
2023-02-27T14:25:21.908Z,37.63
2023-02-27T14:28:46.374Z,35.67
2023-02-27T14:31:49.311Z,36.47
2023-02-27T14:34:53.771Z,36.62
2023-02-27T14:37:56.695Z,36.65
2023-02-27T14:41:05.503Z,37.27
2023-02-27T14:44:25.620Z,37.14
2023-02-27T14:47:32.772Z,37.77
2023-02-27T14:50:40.151Z,38.43
2023-02-27T14:53:42.693Z,38.49
2023-02-27T14:57:04.248Z,38.08
2023-02-27T15:00:07.130Z,37.63
2023-02-27T15:03:20.232Z,38.26
2023-02-27T15:06:34.754Z,39.93
2023-02-27T15:09:43.059Z,38.48
2023-02-27T15:12:45.288Z,39.98
2023-02-27T15:15:48.776Z,39.45
2023-02-27T15:18:54.450Z,39.31
2023-02-27T15:22:00.425Z,40.23
2023-02-27T15:25:04.684Z,40.42
2023-02-27T15:28:21.762Z,40.26
2023-02-27T15:31:31.292Z,40.07
2023-02-27T15:34:35.444Z,41.38
2023-02-27T15:37:38.796Z,39.64
2023-02-27T15:40:41.270Z,39.15
2023-02-27T15:43:43.493Z,38.97
2023-02-27T15:46:47.179Z,39.68
2023-02-27T15:49:54.463Z,39.02
2023-02-27T15:53:10.648Z,40.43
2023-02-27T15:56:14.736Z,41.02
2023-02-27T15:59:19.586Z,43.91
2023-02-27T16:02:29.936Z,41.57
2023-02-27T16:05:41.906Z,40.85
2023-02-27T16:08:50.518Z,41.68
2023-02-27T16:12:17.763Z,42.08
2023-02-27T16:15:22.169Z,42.60
2023-02-27T16:18:35.348Z,42.28
2023-02-27T16:21:37.438Z,42.97
2023-02-27T16:24:40.644Z,45.89
2023-02-27T16:27:49.981Z,42.45
2023-02-27T16:30:54.362Z,42.88
2023-02-27T16:34:03.155Z,44.04
2023-02-27T16:37:07.143Z,44.72
